createdAt,value
2023-01-01T00:00:41.526Z,87.89
2023-01-01T00:03:08.639Z,87.67
2023-01-01T00:05:38.739Z,87.44
2023-01-01T00:08:05.815Z,87.09
2023-01-01T00:10:33.796Z,86.85
2023-01-01T00:13:01.206Z,86.47
2023-01-01T00:15:28.255Z,86.98
2023-01-01T00:17:55.592Z,86.35
2023-01-01T00:20:23.022Z,86.49
2023-01-01T00:22:55.066Z,86.53
2023-01-01T00:25:23.574Z,86.51
2023-01-01T00:27:51.143Z,86.08
2023-01-01T00:30:18.654Z,86.42
2023-01-01T00:32:54.991Z,86.21
2023-01-01T00:35:26.247Z,86.15
2023-01-01T00:37:54.611Z,86.36
2023-01-01T00:40:21.781Z,85.98
2023-01-01T00:42:48.845Z,85.86
2023-01-01T00:45:21.429Z,85.98
2023-01-01T00:47:53.841Z,86.25
2023-01-01T00:50:22.507Z,85.91
2023-01-01T00:52:50.408Z,86.27
2023-01-01T00:55:17.738Z,85.74
2023-01-01T00:57:44.901Z,85.83
2023-01-01T01:00:12.766Z,85.87
2023-01-01T01:02:40.168Z,85.71
2023-01-01T01:05:08.021Z,86.00
2023-01-01T01:07:39.310Z,85.44
2023-01-01T01:10:07.374Z,85.65
2023-01-01T01:12:35.843Z,85.55
2023-01-01T01:15:04.438Z,85.55
2023-01-01T01:17:31.767Z,85.48
2023-01-01T01:19:59.075Z,85.26
2023-01-01T01:22:29.027Z,85.12
2023-01-01T01:24:56.824Z,85.18
2023-01-01T01:27:24.502Z,85.33
2023-01-01T01:29:51.690Z,84.91
2023-01-01T01:32:19.047Z,84.67
2023-01-01T01:34:46.916Z,84.97
2023-01-01T01:37:13.942Z,84.52
2023-01-01T01:39:41.124Z,84.84
2023-01-01T01:42:08.332Z,84.64
2023-01-01T01:44:47.820Z,84.26
2023-01-01T01:47:54.527Z,84.31
2023-01-01T01:50:23.765Z,84.38
2023-01-01T01:53:13.131Z,84.14
2023-01-01T01:55:45.391Z,84.03
2023-01-01T01:58:15.660Z,83.95
2023-01-01T02:00:43.189Z,83.45
2023-01-01T02:03:20.428Z,83.24
2023-01-01T02:05:49.054Z,83.33
2023-01-01T02:08:16.892Z,82.75
2023-01-01T02:10:44.227Z,82.54
2023-01-01T02:13:11.788Z,82.60
2023-01-01T02:16:13.877Z,82.50
2023-01-01T02:18:51.818Z,82.48
2023-01-01T02:21:27.219Z,82.04
2023-01-01T02:24:13.030Z,82.42
2023-01-01T02:26:45.906Z,82.40
2023-01-01T02:29:28.081Z,82.19
2023-01-01T02:32:04.566Z,81.96
2023-01-01T02:34:40.070Z,82.18
2023-01-01T02:37:10.634Z,82.06
2023-01-01T02:39:43.290Z,82.33
2023-01-01T02:42:10.473Z,82.22
2023-01-01T02:44:42.222Z,81.70
2023-01-01T02:47:12.316Z,82.45
2023-01-01T02:49:49.699Z,81.82
2023-01-01T02:52:44.420Z,82.12
2023-01-01T02:55:32.589Z,81.43
2023-01-01T02:58:43.926Z,81.57
2023-01-01T03:01:35.067Z,81.32
2023-01-01T03:04:20.500Z,81.70
2023-01-01T03:06:56.791Z,81.50
2023-01-01T03:09:42.310Z,81.23
2023-01-01T03:12:25.519Z,81.03
2023-01-01T03:15:07.323Z,80.82
2023-01-01T03:17:39.055Z,80.26
2023-01-01T03:20:16.061Z,80.49
2023-01-01T03:25:18.837Z,80.63
2023-01-01T03:27:52.877Z,80.26
2023-01-01T03:30:21.549Z,79.90
2023-01-01T03:33:05.574Z,79.81
2023-01-01T03:36:20.508Z,79.44
2023-01-01T03:39:02.211Z,79.35
2023-01-01T03:41:41.093Z,79.84
2023-01-01T03:44:11.521Z,79.76
2023-01-01T03:46:38.626Z,79.38
2023-01-01T03:49:09.402Z,79.49
2023-01-01T03:51:51.382Z,79.10
2023-01-01T03:54:36.544Z,79.32
2023-01-01T03:57:20.830Z,78.98
2023-01-01T04:00:00.403Z,78.34
2023-01-01T04:02:41.220Z,78.67
2023-01-01T04:05:12.943Z,78.18
2023-01-01T04:10:17.563Z,77.44
2023-01-01T04:12:50.627Z,77.67
2023-01-01T04:15:23.318Z,77.46
2023-01-01T04:17:51.055Z,77.05
2023-01-01T04:20:18.912Z,77.47
2023-01-01T04:22:46.484Z,77.17
2023-01-01T04:25:15.033Z,77.24
2023-01-01T04:27:42.136Z,76.44
2023-01-01T04:30:11.675Z,76.80
2023-01-01T04:32:39.757Z,76.22
2023-01-01T04:35:09.006Z,76.05
2023-01-01T04:37:36.925Z,75.55
2023-01-01T04:40:05.831Z,75.20
2023-01-01T04:42:33.028Z,74.98
2023-01-01T04:45:00.150Z,75.42
2023-01-01T04:47:27.541Z,75.55
2023-01-01T04:49:54.996Z,75.15
2023-01-01T04:52:22.604Z,75.33
2023-01-01T04:54:49.694Z,75.07
2023-01-01T04:57:16.804Z,74.88
2023-01-01T04:59:44.109Z,74.92
2023-01-01T05:02:11.350Z,74.74
2023-01-01T05:04:38.566Z,75.20
2023-01-01T05:07:05.630Z,75.09
2023-01-01T05:09:32.807Z,75.17
2023-01-01T05:11:59.832Z,75.31
2023-01-01T05:14:26.991Z,75.37
2023-01-01T05:16:54.101Z,75.21
2023-01-01T05:19:21.209Z,75.63
2023-01-01T05:21:48.204Z,75.50
2023-01-01T05:24:16.096Z,75.18
2023-01-01T05:26:45.070Z,74.96
2023-01-01T05:29:16.961Z,75.34
2023-01-01T05:31:45.285Z,75.27
2023-01-01T05:34:12.614Z,74.76
2023-01-01T05:36:40.089Z,74.76
2023-01-01T05:39:09.503Z,75.01
2023-01-01T05:41:36.965Z,75.48
2023-01-01T05:44:06.478Z,75.11
2023-01-01T05:46:33.924Z,75.50
2023-01-01T05:49:01.589Z,75.10
2023-01-01T05:51:30.121Z,74.38
2023-01-01T05:53:58.705Z,74.79
2023-01-01T05:56:26.554Z,74.93
2023-01-01T05:58:54.492Z,75.35
2023-01-01T06:01:26.934Z,75.21
2023-01-01T06:03:55.541Z,75.20
2023-01-01T06:06:25.405Z,75.28
2023-01-01T06:08:54.502Z,74.89
2023-01-01T06:11:21.861Z,74.87
2023-01-01T06:13:51.725Z,74.82
2023-01-01T06:16:18.802Z,74.73
2023-01-01T06:18:45.892Z,75.04
2023-01-01T06:21:18.662Z,74.81
2023-01-01T06:23:46.462Z,74.49
2023-01-01T06:26:16.965Z,74.83
2023-01-01T06:28:45.086Z,74.68
2023-01-01T06:31:14.279Z,74.32
2023-01-01T06:33:41.662Z,74.75
2023-01-01T06:36:10.890Z,73.94
2023-01-01T06:38:42.414Z,73.49
2023-01-01T06:41:15.499Z,73.58
2023-01-01T06:43:43.208Z,73.48
2023-01-01T06:46:24.998Z,73.03
2023-01-01T06:48:57.374Z,73.10
2023-01-01T06:51:36.916Z,73.47
2023-01-01T06:54:04.910Z,73.04
2023-01-01T06:56:32.560Z,72.74
2023-01-01T06:59:00.179Z,72.42
2023-01-01T07:01:30.266Z,72.44
2023-01-01T07:04:00.393Z,71.93
2023-01-01T07:06:29.473Z,71.37
2023-01-01T07:08:57.200Z,71.50
2023-01-01T07:11:25.192Z,70.81
2023-01-01T07:13:52.318Z,70.76
2023-01-01T07:16:19.847Z,69.95
2023-01-01T07:18:49.237Z,69.76
2023-01-01T07:21:34.602Z,69.22
2023-01-01T07:24:04.274Z,69.25
2023-01-01T07:26:33.014Z,68.74
2023-01-01T07:29:08.599Z,68.42
2023-01-01T07:31:41.266Z,67.91
2023-01-01T07:34:13.165Z,67.91
2023-01-01T07:36:41.525Z,67.57
2023-01-01T07:39:09.074Z,67.57
2023-01-01T07:41:37.008Z,67.66
2023-01-01T07:44:04.653Z,67.46
2023-01-01T07:46:34.011Z,67.73
2023-01-01T07:49:01.141Z,67.78
2023-01-01T07:51:28.321Z,67.74
2023-01-01T07:53:59.270Z,67.93
2023-01-01T07:56:29.529Z,67.79
2023-01-01T07:58:56.675Z,67.88
2023-01-01T08:01:23.802Z,68.01
2023-01-01T08:03:53.065Z,67.73
2023-01-01T08:06:20.697Z,66.99
2023-01-01T08:08:47.835Z,67.14
2023-01-01T08:11:14.967Z,67.38
2023-01-01T08:13:42.055Z,67.15
2023-01-01T08:16:09.333Z,66.94
2023-01-01T08:18:36.811Z,67.00
2023-01-01T08:21:04.547Z,66.48
2023-01-01T08:23:31.734Z,66.87
2023-01-01T08:26:00.512Z,67.03
2023-01-01T08:28:27.941Z,66.92
2023-01-01T08:30:55.321Z,67.02
2023-01-01T08:33:23.375Z,66.72
2023-01-01T08:35:54.385Z,66.90
2023-01-01T08:38:22.233Z,67.17
2023-01-01T08:40:49.305Z,67.22
2023-01-01T08:43:16.323Z,66.93
2023-01-01T08:45:43.593Z,67.07
2023-01-01T08:48:10.637Z,66.95
2023-01-01T08:50:37.861Z,66.74
2023-01-01T08:53:05.011Z,66.65
2023-01-01T08:55:32.176Z,66.65
2023-01-01T08:57:59.370Z,66.55
2023-01-01T09:00:26.620Z,66.30
2023-01-01T09:02:54.360Z,66.38
2023-01-01T09:05:21.563Z,66.48
2023-01-01T09:07:48.660Z,66.11
2023-01-01T09:10:15.853Z,66.17
2023-01-01T09:12:43.002Z,66.18
2023-01-01T09:15:16.491Z,65.76
2023-01-01T09:17:43.630Z,65.57
2023-01-01T09:20:11.014Z,65.38
2023-01-01T09:22:38.121Z,65.40
2023-01-01T09:25:05.581Z,65.28
2023-01-01T09:27:32.763Z,64.91
2023-01-01T09:30:00.566Z,64.92
2023-01-01T09:32:30.067Z,64.71
2023-01-01T09:34:57.792Z,64.04
2023-01-01T09:37:25.076Z,63.96
2023-01-01T09:39:53.068Z,63.66
2023-01-01T09:42:34.145Z,63.34
2023-01-01T09:45:03.975Z,63.33
2023-01-01T09:47:38.563Z,63.23
2023-01-01T09:50:12.682Z,63.25
2023-01-01T09:53:07.040Z,62.70
2023-01-01T09:55:55.711Z,62.53
2023-01-01T09:58:26.857Z,62.91
2023-01-01T10:00:58.097Z,62.60
2023-01-01T10:03:49.770Z,62.63
2023-01-01T10:06:24.862Z,61.95
2023-01-01T10:09:22.612Z,62.16
2023-01-01T10:12:08.082Z,62.13
2023-01-01T10:14:41.059Z,62.34
2023-01-01T10:17:28.002Z,62.17
2023-01-01T10:20:00.183Z,62.34
2023-01-01T10:22:35.371Z,62.07
2023-01-01T10:25:15.752Z,61.84
2023-01-01T10:27:59.143Z,62.05
2023-01-01T10:30:28.411Z,61.89
2023-01-01T10:32:57.152Z,61.77
2023-01-01T10:35:46.667Z,61.42
2023-01-01T10:38:25.357Z,61.32
2023-01-01T10:41:03.663Z,61.35
2023-01-01T10:43:30.767Z,61.18
2023-01-01T10:46:00.691Z,61.56
2023-01-01T10:48:33.032Z,61.56
2023-01-01T10:51:15.321Z,61.85
2023-01-01T10:53:50.026Z,61.61
2023-01-01T10:56:23.145Z,61.47
2023-01-01T10:58:52.848Z,61.86
2023-01-01T11:01:34.027Z,61.24
2023-01-01T11:04:01.350Z,61.68
2023-01-01T11:06:48.911Z,61.63
2023-01-01T11:09:25.819Z,61.54
2023-01-01T11:12:24.595Z,61.62
2023-01-01T11:14:58.217Z,61.64
2023-01-01T11:17:28.919Z,61.52
2023-01-01T11:20:01.736Z,61.85
2023-01-01T11:22:43.982Z,62.00
2023-01-01T11:25:23.553Z,61.74
2023-01-01T11:27:51.809Z,62.18
2023-01-01T11:30:27.514Z,61.89
2023-01-01T11:33:00.827Z,61.77
2023-01-01T11:35:32.459Z,61.92
2023-01-01T11:38:00.526Z,62.13
2023-01-01T11:40:37.302Z,61.95
2023-01-01T11:43:07.221Z,61.98
2023-01-01T11:45:42.597Z,62.38
2023-01-01T11:48:19.184Z,62.32
2023-01-01T11:51:02.132Z,62.39
2023-01-01T11:53:31.276Z,62.34
2023-01-01T11:56:16.019Z,62.44
2023-01-01T11:58:54.720Z,62.37
2023-01-01T12:01:28.055Z,62.44
2023-01-01T12:04:07.186Z,62.62
2023-01-01T12:06:36.850Z,62.79
2023-01-01T12:09:18.472Z,63.15
2023-01-01T12:12:00.372Z,63.07
2023-01-01T12:14:48.463Z,63.02
2023-01-01T12:17:23.445Z,63.21
2023-01-01T12:19:53.231Z,63.46
2023-01-01T12:22:20.312Z,63.51
2023-01-01T12:24:48.906Z,63.34
2023-01-01T12:27:51.810Z,63.94
2023-01-01T12:30:21.158Z,63.84
2023-01-01T12:33:08.460Z,64.07
2023-01-01T12:35:43.584Z,63.97
2023-01-01T12:38:20.128Z,64.25
2023-01-01T12:41:01.365Z,64.07
2023-01-01T12:43:34.239Z,64.32
2023-01-01T12:46:19.653Z,64.44
2023-01-01T12:49:14.787Z,64.64
2023-01-01T12:51:57.713Z,64.97
2023-01-01T12:54:45.869Z,65.06
2023-01-01T12:57:48.412Z,65.30
2023-01-01T13:00:20.314Z,65.19
2023-01-01T13:02:59.756Z,64.84
2023-01-01T13:05:42.635Z,65.05
2023-01-01T13:08:10.182Z,65.36
2023-01-01T13:10:45.294Z,65.53
2023-01-01T13:13:14.201Z,65.49
2023-01-01T13:15:41.728Z,65.29
2023-01-01T13:18:14.869Z,65.49
2023-01-01T13:20:47.498Z,65.95
2023-01-01T13:23:29.682Z,65.92
2023-01-01T13:26:18.668Z,66.22
2023-01-01T13:28:59.717Z,66.49
2023-01-01T13:31:39.394Z,66.41
2023-01-01T13:34:32.635Z,66.68
2023-01-01T13:37:14.040Z,66.78
2023-01-01T13:39:59.781Z,66.75
2023-01-01T13:42:52.054Z,67.37
2023-01-01T13:48:39.429Z,67.87
2023-01-01T13:51:33.672Z,67.99
2023-01-01T13:54:27.022Z,67.90
2023-01-01T13:56:56.895Z,67.86
2023-01-01T13:59:30.001Z,68.26
2023-01-01T14:02:29.185Z,68.42
2023-01-01T14:05:02.446Z,68.21
2023-01-01T14:07:51.277Z,68.40
2023-01-01T14:10:31.664Z,68.54
2023-01-01T14:13:08.739Z,69.25
2023-01-01T14:15:44.893Z,68.94
2023-01-01T14:18:16.476Z,69.50
2023-01-01T14:20:48.193Z,69.28
2023-01-01T14:23:27.275Z,69.81
2023-01-01T14:25:54.663Z,69.68
2023-01-01T14:28:26.687Z,69.73
2023-01-01T14:30:55.706Z,69.99
2023-01-01T14:33:28.244Z,70.09
2023-01-01T14:35:57.953Z,70.19
2023-01-01T14:38:35.962Z,70.31
2023-01-01T14:41:18.242Z,70.33
2023-01-01T14:43:48.066Z,70.01
2023-01-01T14:46:34.387Z,70.30
2023-01-01T14:49:08.115Z,70.15
2023-01-01T14:51:40.841Z,70.31
2023-01-01T14:54:17.459Z,70.57
2023-01-01T14:56:47.788Z,70.59
2023-01-01T14:59:28.970Z,70.34
2023-01-01T15:02:28.575Z,70.68
2023-01-01T15:04:56.750Z,71.01
2023-01-01T15:07:26.697Z,70.60
2023-01-01T15:09:56.856Z,70.65
2023-01-01T15:12:24.662Z,70.96
2023-01-01T15:14:54.530Z,71.19
2023-01-01T15:17:23.918Z,70.67
2023-01-01T15:20:19.940Z,71.35
2023-01-01T15:22:47.649Z,70.97
2023-01-01T15:25:17.994Z,70.90
2023-01-01T15:27:49.049Z,70.80
2023-01-01T15:30:36.363Z,71.20
2023-01-01T15:33:17.192Z,70.99
2023-01-01T15:35:47.824Z,71.54
2023-01-01T15:38:26.973Z,71.61
2023-01-01T15:40:54.151Z,71.88
2023-01-01T15:43:31.033Z,71.51
2023-01-01T15:46:20.440Z,72.39
2023-01-01T15:48:53.653Z,72.18
2023-01-01T15:51:24.461Z,72.30
2023-01-01T15:54:01.376Z,72.22
2023-01-01T15:56:32.401Z,72.91
2023-01-01T15:59:09.404Z,72.47
2023-01-01T16:01:40.035Z,72.66
2023-01-01T16:04:28.356Z,73.41
2023-01-01T16:06:57.904Z,73.35
2023-01-01T16:09:25.169Z,73.65
2023-01-01T16:11:54.542Z,73.36
2023-01-01T16:14:21.897Z,73.62
2023-01-01T16:16:56.999Z,73.55
2023-01-01T16:19:24.960Z,74.46
2023-01-01T16:21:52.187Z,73.68
2023-01-01T16:24:20.136Z,74.20
2023-01-01T16:26:48.024Z,73.89
2023-01-01T16:29:16.146Z,74.54
2023-01-01T16:31:44.865Z,74.43
2023-01-01T16:34:14.516Z,74.98
2023-01-01T16:36:42.953Z,74.94
2023-01-01T16:39:10.274Z,74.44
2023-01-01T16:41:40.838Z,75.37
2023-01-01T16:44:09.543Z,75.09
2023-01-01T16:46:36.762Z,75.24
2023-01-01T16:49:04.785Z,75.07
2023-01-01T16:51:32.536Z,74.99
2023-01-01T16:54:01.102Z,75.93
2023-01-01T16:56:29.664Z,75.81
2023-01-01T16:59:02.848Z,76.03
2023-01-01T17:01:30.568Z,75.74
2023-01-01T17:03:58.012Z,76.16
2023-01-01T17:06:25.106Z,76.25
2023-01-01T17:08:52.289Z,76.41
2023-01-01T17:11:19.652Z,76.20
2023-01-01T17:13:48.213Z,76.49
2023-01-01T17:16:23.537Z,76.27
2023-01-01T17:21:40.714Z,76.24
2023-01-01T17:24:08.054Z,76.21
2023-01-01T17:26:35.450Z,76.59
2023-01-01T17:29:03.596Z,76.50
2023-01-01T17:31:31.275Z,76.95
2023-01-01T17:33:59.593Z,76.97
2023-01-01T17:36:27.724Z,76.56
2023-01-01T17:38:55.324Z,76.55
2023-01-01T17:41:22.921Z,76.76
2023-01-01T17:43:51.838Z,76.90
2023-01-01T17:46:22.413Z,77.09
2023-01-01T17:48:50.224Z,77.01
2023-01-01T17:51:18.929Z,76.76
2023-01-01T17:53:46.944Z,77.51
2023-01-01T17:56:15.870Z,77.85
2023-01-01T17:58:44.543Z,77.30
2023-01-01T18:01:14.458Z,77.21
2023-01-01T18:03:42.228Z,77.26
2023-01-01T18:06:09.524Z,77.67
2023-01-01T18:08:36.857Z,77.87
2023-01-01T18:11:03.984Z,77.20
2023-01-01T18:13:33.631Z,77.52
2023-01-01T18:16:02.112Z,77.47
2023-01-01T18:18:31.022Z,77.23
2023-01-01T18:21:05.512Z,77.68
2023-01-01T18:23:34.401Z,77.77
2023-01-01T18:26:06.997Z,77.49
2023-01-01T18:28:34.384Z,77.46
2023-01-01T18:31:28.988Z,78.08
2023-01-01T18:33:56.421Z,78.33
2023-01-01T18:36:27.376Z,78.04
2023-01-01T18:39:15.232Z,77.98
2023-01-01T18:42:01.023Z,79.06
2023-01-01T18:44:31.218Z,78.53
2023-01-01T18:47:04.230Z,78.70
2023-01-01T18:49:32.459Z,78.60
2023-01-01T18:52:28.073Z,78.98
2023-01-01T18:55:12.365Z,79.53
2023-01-01T18:57:40.795Z,79.24
2023-01-01T19:00:24.489Z,79.34
2023-01-01T19:02:51.573Z,79.87
2023-01-01T19:05:28.486Z,79.34
2023-01-01T19:08:07.765Z,79.51
2023-01-01T19:10:35.066Z,80.08
2023-01-01T19:13:15.341Z,79.48
2023-01-01T19:15:58.066Z,79.48
2023-01-01T19:18:31.964Z,79.40
2023-01-01T19:21:19.748Z,78.81
2023-01-01T19:23:54.175Z,78.92
2023-01-01T19:26:48.804Z,79.66
2023-01-01T19:29:15.905Z,79.18
2023-01-01T19:31:44.240Z,78.76
2023-01-01T19:34:11.478Z,79.16
2023-01-01T19:36:38.864Z,78.62
2023-01-01T19:39:07.099Z,79.02
2023-01-01T19:41:34.242Z,78.88
2023-01-01T19:44:02.050Z,79.33
2023-01-01T19:46:29.450Z,78.62
2023-01-01T19:48:57.720Z,78.34
2023-01-01T19:51:25.521Z,78.39
2023-01-01T19:53:53.887Z,78.68
2023-01-01T19:56:21.773Z,78.60
2023-01-01T19:58:49.709Z,77.96
2023-01-01T20:01:17.271Z,78.63
2023-01-01T20:04:00.438Z,78.37
2023-01-01T20:06:28.048Z,78.28
2023-01-01T20:08:55.305Z,78.75
2023-01-01T20:11:22.863Z,78.33
2023-01-01T20:13:50.001Z,77.85
2023-01-01T20:16:17.126Z,78.26
2023-01-01T20:18:44.301Z,78.74
2023-01-01T20:21:29.992Z,78.05
2023-01-01T20:23:57.093Z,78.58
2023-01-01T20:26:25.852Z,78.56
2023-01-01T20:29:11.361Z,78.52
2023-01-01T20:31:38.655Z,78.41
2023-01-01T20:34:05.758Z,78.81
2023-01-01T20:36:51.634Z,79.09
2023-01-01T20:39:18.689Z,79.07
2023-01-01T20:41:45.823Z,78.41
2023-01-01T20:44:12.869Z,78.97
2023-01-01T20:46:41.387Z,79.54
2023-01-01T20:49:08.966Z,79.09
2023-01-01T20:51:36.129Z,79.52
2023-01-01T20:54:03.837Z,79.81
2023-01-01T20:56:31.818Z,79.49
2023-01-01T20:59:04.451Z,79.88
2023-01-01T21:01:40.099Z,79.69
2023-01-01T21:04:07.489Z,80.09
2023-01-01T21:06:34.562Z,80.17
2023-01-01T21:09:05.124Z,80.33
2023-01-01T21:11:36.128Z,80.15
2023-01-01T21:14:03.634Z,80.57
2023-01-01T21:16:36.873Z,80.21
2023-01-01T21:19:07.283Z,80.38
2023-01-01T21:21:43.145Z,80.33
2023-01-01T21:24:20.426Z,80.44
2023-01-01T21:26:49.959Z,80.68
2023-01-01T21:29:20.088Z,80.96
2023-01-01T21:31:51.962Z,80.58
2023-01-01T21:34:35.233Z,80.35
2023-01-01T21:37:12.843Z,80.57
2023-01-01T21:39:40.064Z,80.82
2023-01-01T21:42:24.934Z,80.60
2023-01-01T21:44:57.581Z,80.69
2023-01-01T21:47:26.375Z,81.49
2023-01-01T21:49:56.282Z,80.99
2023-01-01T21:52:25.528Z,81.09
2023-01-01T21:54:53.495Z,80.95
2023-01-01T21:57:25.042Z,80.78
2023-01-01T21:59:54.363Z,81.21
2023-01-01T22:02:34.184Z,81.01
2023-01-01T22:05:17.943Z,81.56
2023-01-01T22:07:57.588Z,81.17
2023-01-01T22:10:42.960Z,81.26
2023-01-01T22:13:17.171Z,81.43
2023-01-01T22:15:44.835Z,80.62
2023-01-01T22:18:11.949Z,81.00
2023-01-01T22:20:42.048Z,81.56
2023-01-01T22:23:27.287Z,80.73
2023-01-01T22:25:54.479Z,81.31
2023-01-01T22:28:27.520Z,80.98
2023-01-01T22:31:02.579Z,81.01
2023-01-01T22:33:38.607Z,81.32
2023-01-01T22:36:27.166Z,81.45
2023-01-01T22:39:26.272Z,81.29
2023-01-01T22:41:53.675Z,81.00
2023-01-01T22:44:21.305Z,80.54
2023-01-01T22:46:48.863Z,80.69
2023-01-01T22:49:22.176Z,80.40
2023-01-01T22:51:52.296Z,80.87
2023-01-01T22:54:19.365Z,80.48
2023-01-01T22:56:46.581Z,80.65
2023-01-01T22:59:13.713Z,81.19
2023-01-01T23:01:40.896Z,80.93
2023-01-01T23:04:08.028Z,81.77
2023-01-01T23:06:35.178Z,81.61
2023-01-01T23:09:02.387Z,82.66
2023-01-01T23:11:29.497Z,82.61
2023-01-01T23:14:15.112Z,82.34
2023-01-01T23:16:42.249Z,83.06
2023-01-01T23:19:09.316Z,83.52
2023-01-01T23:21:36.926Z,83.70
2023-01-01T23:24:08.268Z,84.81
2023-01-01T23:26:35.589Z,85.06
2023-01-01T23:29:03.470Z,85.62
2023-01-01T23:31:31.793Z,85.56
2023-01-01T23:33:59.271Z,86.37
2023-01-01T23:36:28.383Z,87.02
2023-01-01T23:38:55.480Z,87.19
2023-01-01T23:41:23.370Z,87.86
2023-01-01T23:43:50.660Z,87.58
2023-01-01T23:46:18.880Z,88.03
2023-01-01T23:48:47.789Z,88.27
2023-01-01T23:51:16.589Z,88.83
2023-01-01T23:53:43.726Z,88.89
2023-01-01T23:56:11.057Z,89.02
2023-01-01T23:58:38.287Z,89.04
